createdAt,value
2022-10-13T00:02:13.413Z,6.53
2022-10-13T00:04:43.776Z,6.42
2022-10-13T00:07:14.118Z,6.53
2022-10-13T00:09:44.648Z,6.50
2022-10-13T00:12:15.053Z,6.90
2022-10-13T00:14:45.552Z,6.27
2022-10-13T00:17:15.860Z,6.13
2022-10-13T00:19:46.150Z,6.13
2022-10-13T00:22:16.859Z,6.80
2022-10-13T00:24:52.253Z,7.58
2022-10-13T00:27:22.642Z,7.03
2022-10-13T00:29:52.946Z,6.43
2022-10-13T00:32:23.274Z,6.17
2022-10-13T00:34:53.714Z,6.25
2022-10-13T00:37:24.312Z,6.87
2022-10-13T00:39:54.681Z,6.63
2022-10-13T00:42:27.000Z,7.60
2022-10-13T00:45:07.078Z,6.83
2022-10-13T00:47:46.233Z,6.33
2022-10-13T00:50:22.569Z,7.57
2022-10-13T00:52:55.229Z,6.63
2022-10-13T00:55:28.737Z,7.17
2022-10-13T00:58:05.075Z,6.57
2022-10-13T01:00:35.702Z,6.97
2022-10-13T01:03:06.290Z,7.53
2022-10-13T01:05:37.278Z,7.03
2022-10-13T01:08:07.949Z,7.00
2022-10-13T01:11:11.473Z,7.40
2022-10-13T01:14:01.803Z,7.50
2022-10-13T01:16:54.516Z,7.37
2022-10-13T01:19:53.926Z,7.70
2022-10-13T01:22:48.511Z,8.23
2022-10-13T01:25:36.158Z,7.97
2022-10-13T01:28:27.950Z,8.67
2022-10-13T01:31:02.057Z,7.35
2022-10-13T01:33:35.504Z,7.75
2022-10-13T01:36:17.697Z,8.78
2022-10-13T01:38:53.932Z,6.75
2022-10-13T01:41:33.424Z,7.30
2022-10-13T01:44:27.693Z,8.23
2022-10-13T01:46:59.258Z,7.10
2022-10-13T01:49:32.673Z,7.80
2022-10-13T01:52:09.476Z,7.37
2022-10-13T01:54:39.853Z,7.70
2022-10-13T01:57:32.251Z,7.40
2022-10-13T02:00:08.523Z,8.00
2022-10-13T02:02:58.633Z,8.13
2022-10-13T02:05:32.011Z,8.28
2022-10-13T02:08:14.553Z,7.53
2022-10-13T02:10:59.937Z,8.20
2022-10-13T02:13:32.345Z,7.60
2022-10-13T02:16:03.626Z,8.23
2022-10-13T02:18:36.930Z,7.40
2022-10-13T02:21:07.366Z,8.03
2022-10-13T02:23:38.071Z,8.00
2022-10-13T02:26:08.384Z,7.35
2022-10-13T02:28:39.447Z,8.67
2022-10-13T02:31:10.700Z,7.80
2022-10-13T02:33:41.114Z,8.27
2022-10-13T02:36:12.519Z,8.33
2022-10-13T02:38:43.215Z,7.40
2022-10-13T02:41:14.174Z,9.23
2022-10-13T02:43:44.486Z,7.90
2022-10-13T02:46:14.928Z,8.63
2022-10-13T02:48:45.393Z,8.90
2022-10-13T02:51:15.957Z,8.27
2022-10-13T02:53:46.602Z,7.60
2022-10-13T02:56:17.380Z,7.90
2022-10-13T02:58:47.758Z,8.33
2022-10-13T03:01:18.082Z,8.27
2022-10-13T03:03:48.491Z,8.73
2022-10-13T03:06:18.866Z,8.23
2022-10-13T03:08:49.192Z,8.85
2022-10-13T03:11:19.483Z,8.47
2022-10-13T03:13:49.860Z,7.75
2022-10-13T03:16:20.636Z,8.33
2022-10-13T03:18:51.020Z,8.10
2022-10-13T03:21:21.366Z,8.07
2022-10-13T03:23:51.928Z,7.70
2022-10-13T03:26:22.457Z,7.67
2022-10-13T03:28:53.730Z,8.30
2022-10-13T03:31:24.434Z,8.53
2022-10-13T03:33:54.811Z,7.53
2022-10-13T03:36:25.113Z,8.07
2022-10-13T03:38:55.499Z,7.93
2022-10-13T03:41:26.018Z,8.27
2022-10-13T03:43:56.412Z,7.47
2022-10-13T03:46:28.986Z,7.03
2022-10-13T03:48:59.462Z,7.40
2022-10-13T03:51:29.788Z,7.53
2022-10-13T03:54:00.450Z,9.00
2022-10-13T03:56:30.845Z,7.63
2022-10-13T03:59:03.530Z,7.70
2022-10-13T04:01:34.969Z,8.53
2022-10-13T04:04:07.449Z,7.50
2022-10-13T04:06:37.764Z,8.43
2022-10-13T04:09:08.354Z,8.00
2022-10-13T04:11:39.373Z,8.17
2022-10-13T04:14:10.004Z,8.00
2022-10-13T04:16:40.667Z,8.40
2022-10-13T04:19:14.291Z,7.53
2022-10-13T04:21:45.045Z,8.38
2022-10-13T04:24:17.550Z,7.75
2022-10-13T04:26:48.023Z,7.90
2022-10-13T04:29:18.405Z,8.40
2022-10-13T04:31:51.576Z,9.43
2022-10-13T04:34:22.040Z,8.03
2022-10-13T04:36:52.514Z,8.47
2022-10-13T04:39:22.847Z,7.73
2022-10-13T04:41:53.229Z,8.30
2022-10-13T04:44:23.810Z,8.50
2022-10-13T04:46:54.128Z,9.10
2022-10-13T04:49:25.440Z,8.63
2022-10-13T04:51:55.751Z,9.60
2022-10-13T04:54:26.166Z,8.97
2022-10-13T04:56:56.602Z,8.13
2022-10-13T04:59:27.050Z,10.13
2022-10-13T05:01:57.422Z,8.50
2022-10-13T05:04:27.801Z,9.43
2022-10-13T05:07:17.882Z,14.43
2022-10-13T05:09:30.316Z,18.87
2022-10-13T05:12:00.782Z,10.63
2022-10-13T05:14:33.352Z,12.20
2022-10-13T05:17:03.711Z,14.20
2022-10-13T05:19:34.084Z,15.83
2022-10-13T05:22:04.403Z,12.27
2022-10-13T05:24:37.164Z,11.60
2022-10-13T05:27:12.378Z,11.50
2022-10-13T05:29:42.925Z,13.97
2022-10-13T05:32:13.281Z,9.63
2022-10-13T05:34:43.701Z,11.08
2022-10-13T05:37:15.741Z,11.50
2022-10-13T05:39:48.792Z,10.63
2022-10-13T05:42:18.810Z,12.60
2022-10-13T05:44:49.572Z,10.20
2022-10-13T05:47:20.001Z,11.08
2022-10-13T05:49:50.388Z,11.20
2022-10-13T05:52:21.187Z,9.87
2022-10-13T05:54:54.896Z,9.63
2022-10-13T05:57:33.928Z,9.07
2022-10-13T06:00:13.113Z,9.80
2022-10-13T06:02:46.590Z,9.28
2022-10-13T06:05:20.410Z,8.97
2022-10-13T06:07:51.130Z,8.85
2022-10-13T06:10:21.961Z,10.07
2022-10-13T06:13:17.195Z,9.45
2022-10-13T06:15:47.847Z,9.23
2022-10-13T06:18:18.252Z,10.03
2022-10-13T06:20:48.598Z,10.23
2022-10-13T06:23:18.989Z,10.90
2022-10-13T06:25:54.151Z,10.23
2022-10-13T06:28:24.498Z,10.03
2022-10-13T06:30:56.528Z,10.57
2022-10-13T06:33:26.841Z,11.13
2022-10-13T06:35:57.252Z,11.05
2022-10-13T06:38:27.733Z,10.88
2022-10-13T06:41:03.297Z,10.87
2022-10-13T06:43:39.908Z,11.17
2022-10-13T06:46:06.587Z,10.57
2022-10-13T06:48:37.506Z,12.73
2022-10-13T06:51:10.844Z,26.70
2022-10-13T06:53:41.367Z,14.93
2022-10-13T06:56:11.972Z,13.22
2022-10-13T06:58:42.362Z,13.55
2022-10-13T07:01:14.907Z,16.47
2022-10-13T07:03:45.268Z,17.27
2022-10-13T07:06:15.602Z,12.73
2022-10-13T07:08:46.160Z,17.20
2022-10-13T07:11:17.230Z,23.40
2022-10-13T07:13:47.611Z,19.10
2022-10-13T07:16:18.007Z,25.77
2022-10-13T07:18:49.196Z,16.80
2022-10-13T07:21:19.883Z,17.57
2022-10-13T07:23:50.282Z,14.98
2022-10-13T07:26:21.129Z,13.30
2022-10-13T07:28:51.534Z,15.28
2022-10-13T07:31:22.353Z,23.20
2022-10-13T07:33:52.795Z,13.15
2022-10-13T07:36:23.462Z,16.77
2022-10-13T07:38:54.012Z,13.90
2022-10-13T07:41:24.428Z,12.87
2022-10-13T07:43:58.711Z,14.67
2022-10-13T07:46:30.082Z,13.30
2022-10-13T07:49:00.633Z,13.40
2022-10-13T07:51:31.065Z,13.00
2022-10-13T07:54:01.297Z,14.33
2022-10-13T07:56:31.687Z,13.33
2022-10-13T07:59:06.530Z,12.93
2022-10-13T08:01:49.327Z,13.18
2022-10-13T08:04:19.796Z,12.05
2022-10-13T08:06:50.172Z,12.82
2022-10-13T08:09:20.542Z,12.93
2022-10-13T08:11:50.971Z,12.33
2022-10-13T08:14:21.739Z,12.90
2022-10-13T08:16:53.679Z,12.95
2022-10-13T08:19:26.342Z,12.73
2022-10-13T08:21:58.814Z,12.80
2022-10-13T08:24:29.500Z,12.75
2022-10-13T08:26:59.975Z,13.70
2022-10-13T08:29:30.603Z,14.38
2022-10-13T08:32:01.503Z,13.10
2022-10-13T08:34:33.537Z,13.08
2022-10-13T08:37:04.804Z,13.20
2022-10-13T08:39:35.181Z,14.13
2022-10-13T08:42:08.667Z,21.17
2022-10-13T08:47:30.010Z,15.90
2022-10-13T08:50:03.826Z,15.63
2022-10-13T08:52:56.902Z,18.90
2022-10-13T08:55:32.877Z,15.20
2022-10-13T08:58:05.589Z,14.28
2022-10-13T09:00:37.528Z,13.13
2022-10-13T09:03:29.187Z,13.53
2022-10-13T09:06:17.725Z,13.25
2022-10-13T09:08:59.849Z,13.28
2022-10-13T09:11:36.238Z,13.85
2022-10-13T09:14:09.882Z,13.43
2022-10-13T09:16:44.007Z,13.43
2022-10-13T09:19:30.040Z,12.68
2022-10-13T09:22:18.413Z,16.20
2022-10-13T09:24:49.444Z,14.30
2022-10-13T09:27:19.907Z,13.68
2022-10-13T09:29:50.284Z,16.25
2022-10-13T09:32:25.815Z,17.02
2022-10-13T09:34:57.743Z,16.32
2022-10-13T09:37:28.180Z,13.62
2022-10-13T09:40:17.051Z,13.48
2022-10-13T09:42:52.742Z,16.23
2022-10-13T09:45:25.584Z,13.50
2022-10-13T09:48:08.283Z,14.50
2022-10-13T09:50:39.209Z,12.63
2022-10-13T09:53:28.670Z,13.22
2022-10-13T09:56:21.512Z,12.63
2022-10-13T09:59:10.452Z,12.50
2022-10-13T10:01:43.915Z,13.80
2022-10-13T10:04:29.388Z,13.10
2022-10-13T10:07:00.065Z,14.63
2022-10-13T10:09:40.920Z,14.83
2022-10-13T10:12:14.576Z,15.28
2022-10-13T10:14:44.982Z,14.38
2022-10-13T10:17:39.321Z,14.18
2022-10-13T10:20:32.496Z,16.30
2022-10-13T10:23:23.285Z,14.25
2022-10-13T10:25:58.080Z,15.23
2022-10-13T10:28:40.132Z,14.28
2022-10-13T10:31:13.580Z,15.90
2022-10-13T10:34:02.120Z,14.90
2022-10-13T10:36:52.395Z,16.85
2022-10-13T10:39:31.895Z,17.57
2022-10-13T10:42:05.455Z,17.90
2022-10-13T10:44:38.884Z,16.25
2022-10-13T10:47:24.794Z,16.73
2022-10-13T10:50:01.341Z,15.63
2022-10-13T10:52:34.839Z,16.12
2022-10-13T10:55:29.085Z,20.17
2022-10-13T10:58:09.181Z,20.97
2022-10-13T11:00:48.651Z,17.23
2022-10-13T11:03:22.146Z,13.28
2022-10-13T11:06:00.885Z,13.83
2022-10-13T11:08:40.761Z,14.83
2022-10-13T11:11:33.364Z,12.93
2022-10-13T11:14:10.116Z,13.15
2022-10-13T11:16:42.579Z,14.28
2022-10-13T11:19:34.454Z,12.93
2022-10-13T11:22:07.954Z,12.85
2022-10-13T11:24:44.091Z,12.88
2022-10-13T11:27:20.321Z,11.95
2022-10-13T11:29:54.752Z,12.60
2022-10-13T11:32:32.542Z,12.05
2022-10-13T11:35:14.823Z,13.45
2022-10-13T11:38:12.650Z,11.85
2022-10-13T11:40:42.466Z,11.53
2022-10-13T11:43:31.123Z,11.90
2022-10-13T11:46:24.921Z,10.38
2022-10-13T11:49:24.023Z,10.10
2022-10-13T11:52:00.145Z,10.43
2022-10-13T11:54:45.991Z,10.72
2022-10-13T11:57:22.092Z,10.72
2022-10-13T11:59:55.664Z,10.23
2022-10-13T12:02:28.426Z,10.75
2022-10-13T12:05:05.176Z,10.50
2022-10-13T12:07:41.180Z,9.65
2022-10-13T12:10:17.475Z,9.48
2022-10-13T12:12:51.591Z,8.58
2022-10-13T12:15:30.813Z,8.98
2022-10-13T12:18:01.293Z,8.68
2022-10-13T12:20:33.643Z,8.30
2022-10-13T12:23:04.146Z,8.93
2022-10-13T12:25:34.610Z,8.08
2022-10-13T12:28:05.268Z,8.73
2022-10-13T12:30:37.153Z,8.20
2022-10-13T12:33:19.745Z,8.55
2022-10-13T12:35:50.193Z,8.03
2022-10-13T12:38:22.285Z,7.53
2022-10-13T12:40:54.591Z,7.65
2022-10-13T12:43:26.409Z,8.63
2022-10-13T12:45:56.874Z,8.80
2022-10-13T12:48:35.966Z,7.60
2022-10-13T12:51:20.773Z,7.97
2022-10-13T12:53:51.257Z,8.40
2022-10-13T12:56:31.503Z,7.50
2022-10-13T12:59:02.464Z,8.15
2022-10-13T13:01:35.457Z,8.93
2022-10-13T13:04:24.324Z,8.35
2022-10-13T13:07:03.453Z,7.85
2022-10-13T13:09:35.647Z,7.50
2022-10-13T13:12:15.003Z,8.15
2022-10-13T13:14:50.966Z,8.48
2022-10-13T13:17:52.823Z,7.65
2022-10-13T13:19:59.910Z,7.60
2022-10-13T13:22:30.372Z,7.08
2022-10-13T13:25:00.758Z,7.50
2022-10-13T13:27:37.116Z,8.75
2022-10-13T13:30:13.453Z,8.13
2022-10-13T13:32:44.227Z,7.92
2022-10-13T13:35:14.827Z,7.60
2022-10-13T13:37:50.944Z,7.87
2022-10-13T13:40:23.929Z,7.05
2022-10-13T13:42:55.257Z,8.70
2022-10-13T13:45:25.912Z,7.95
2022-10-13T13:48:00.494Z,7.72
2022-10-13T13:50:31.215Z,8.20
2022-10-13T13:53:01.996Z,8.15
2022-10-13T13:55:32.870Z,8.40
2022-10-13T13:58:03.384Z,8.48
2022-10-13T14:00:34.267Z,8.53
2022-10-13T14:03:05.244Z,7.97
2022-10-13T14:05:37.104Z,7.85
2022-10-13T14:08:08.633Z,8.75
2022-10-13T14:10:41.323Z,8.13
2022-10-13T14:13:11.651Z,7.85
2022-10-13T14:15:41.999Z,8.45
2022-10-13T14:18:13.486Z,8.40
2022-10-13T14:20:43.960Z,8.03
2022-10-13T14:23:14.276Z,8.43
2022-10-13T14:25:45.171Z,7.67
2022-10-13T14:28:18.219Z,9.05
2022-10-13T14:30:56.992Z,8.10
2022-10-13T14:33:29.220Z,8.08
2022-10-13T14:36:08.547Z,7.22
2022-10-13T14:38:39.049Z,7.60
2022-10-13T14:41:10.687Z,7.97
2022-10-13T14:43:41.181Z,8.18
2022-10-13T14:46:11.581Z,8.68
2022-10-13T14:48:42.009Z,7.95
2022-10-13T14:51:12.723Z,8.25
2022-10-13T14:53:45.230Z,8.65
2022-10-13T14:56:24.802Z,7.90
2022-10-13T14:59:00.813Z,8.33
2022-10-13T15:01:33.499Z,8.75
2022-10-13T15:04:04.655Z,8.70
2022-10-13T15:06:35.370Z,8.25
2022-10-13T15:09:06.276Z,7.85
2022-10-13T15:11:36.826Z,8.63
2022-10-13T15:14:07.906Z,7.83
2022-10-13T15:16:38.301Z,7.65
2022-10-13T15:19:08.779Z,7.95
2022-10-13T15:21:39.096Z,7.50
2022-10-13T15:24:11.863Z,7.22
2022-10-13T15:26:42.257Z,7.62
2022-10-13T15:29:12.756Z,8.00
2022-10-13T15:31:43.141Z,7.87
2022-10-13T15:34:13.682Z,8.33
2022-10-13T15:36:44.134Z,8.33
2022-10-13T15:39:14.564Z,10.00
2022-10-13T15:41:44.966Z,10.72
2022-10-13T15:44:17.587Z,8.95
2022-10-13T15:47:05.783Z,8.25
2022-10-13T15:49:20.059Z,10.00
2022-10-13T15:51:50.997Z,9.20
2022-10-13T15:54:22.694Z,9.30
2022-10-13T15:56:53.066Z,8.85
2022-10-13T15:59:25.265Z,8.73
2022-10-13T16:01:55.610Z,9.68
2022-10-13T16:04:26.168Z,9.85
2022-10-13T16:06:56.552Z,10.48
2022-10-13T16:09:26.950Z,9.28
2022-10-13T16:11:58.764Z,11.05
2022-10-13T16:14:29.097Z,10.63
2022-10-13T16:16:59.500Z,11.48
2022-10-13T16:19:30.031Z,14.33
2022-10-13T16:22:00.409Z,18.10
2022-10-13T16:24:30.932Z,12.95
2022-10-13T16:27:02.298Z,16.42
2022-10-13T16:29:32.718Z,18.15
2022-10-13T16:32:03.154Z,16.82
2022-10-13T16:34:33.651Z,13.32
2022-10-13T16:37:04.448Z,15.68
2022-10-13T16:39:37.524Z,19.80
2022-10-13T16:42:06.850Z,19.32
2022-10-13T16:44:37.429Z,20.08
2022-10-13T16:47:08.179Z,19.70
2022-10-13T16:49:38.494Z,17.77
2022-10-13T16:52:08.935Z,19.52
2022-10-13T16:54:39.491Z,22.22
2022-10-13T16:57:10.075Z,22.48
2022-10-13T16:59:40.628Z,24.90
2022-10-13T17:02:15.643Z,26.93
2022-10-13T17:04:46.101Z,27.65
2022-10-13T17:07:16.534Z,24.07
2022-10-13T17:09:47.542Z,23.70
2022-10-13T17:12:18.960Z,20.10
2022-10-13T17:14:49.796Z,26.62
2022-10-13T17:17:20.322Z,30.43
2022-10-13T17:19:50.961Z,29.75
2022-10-13T17:22:21.334Z,30.57
2022-10-13T17:24:51.674Z,29.20
2022-10-13T17:27:22.475Z,28.65
2022-10-13T17:29:56.294Z,31.07
2022-10-13T17:32:26.812Z,27.52
2022-10-13T17:34:57.195Z,24.95
2022-10-13T17:37:27.633Z,25.23
2022-10-13T17:39:58.150Z,24.23
2022-10-13T17:42:30.148Z,22.98
2022-10-13T17:45:00.623Z,21.65
2022-10-13T17:47:30.964Z,22.07
2022-10-13T17:50:01.639Z,20.02
2022-10-13T17:52:32.025Z,18.73
2022-10-13T17:55:11.927Z,19.25
2022-10-13T17:57:42.338Z,19.95
2022-10-13T18:00:14.060Z,18.70
2022-10-13T18:02:44.385Z,17.98
2022-10-13T18:05:14.875Z,18.05
2022-10-13T18:07:45.267Z,16.12
2022-10-13T18:10:17.520Z,16.75
2022-10-13T18:12:47.876Z,16.52
2022-10-13T18:15:18.202Z,16.45
2022-10-13T18:17:48.598Z,15.53
2022-10-13T18:20:18.922Z,16.10
2022-10-13T18:22:49.330Z,14.70
2022-10-13T18:25:19.738Z,15.65
2022-10-13T18:27:50.161Z,15.80
2022-10-13T18:30:22.506Z,15.40
2022-10-13T18:32:52.707Z,15.38
2022-10-13T18:35:22.950Z,14.20
2022-10-13T18:37:53.354Z,14.45
2022-10-13T18:40:24.499Z,15.03
2022-10-13T18:42:55.217Z,14.30
2022-10-13T18:45:25.614Z,14.83
2022-10-13T18:47:56.035Z,13.78
2022-10-13T18:50:26.420Z,14.18
2022-10-13T18:52:56.841Z,13.98
2022-10-13T18:55:27.232Z,13.68
2022-10-13T18:57:57.649Z,14.58
2022-10-13T19:00:28.067Z,14.28
2022-10-13T19:02:58.542Z,14.73
2022-10-13T19:05:28.981Z,14.05
2022-10-13T19:07:59.381Z,13.53
2022-10-13T19:10:30.257Z,13.93
2022-10-13T19:13:00.696Z,14.40
2022-10-13T19:15:31.070Z,14.23
2022-10-13T19:18:01.406Z,13.72
2022-10-13T19:20:31.834Z,13.98
2022-10-13T19:23:02.274Z,13.65
2022-10-13T19:25:32.917Z,13.95
2022-10-13T19:28:03.283Z,14.15
2022-10-13T19:30:33.670Z,13.98
2022-10-13T19:33:04.745Z,14.60
2022-10-13T19:35:43.660Z,13.78
2022-10-13T19:38:15.304Z,14.60
2022-10-13T19:40:49.592Z,15.55
2022-10-13T19:43:21.508Z,15.25
2022-10-13T19:45:58.803Z,15.35
2022-10-13T19:48:25.956Z,15.30
2022-10-13T19:50:56.974Z,15.85
2022-10-13T19:53:27.427Z,14.73
2022-10-13T19:55:57.815Z,14.55
2022-10-13T19:58:28.211Z,14.90
2022-10-13T20:01:08.278Z,15.90
2022-10-13T20:03:38.934Z,15.60
2022-10-13T20:06:10.786Z,15.90
2022-10-13T20:08:41.362Z,14.45
2022-10-13T20:11:17.209Z,14.53
2022-10-13T20:13:47.591Z,14.75
2022-10-13T20:16:20.694Z,15.40
2022-10-13T20:18:59.859Z,15.90
2022-10-13T20:21:30.513Z,15.15
2022-10-13T20:24:01.020Z,16.32
2022-10-13T20:26:31.527Z,16.10
2022-10-13T20:29:02.055Z,14.95
2022-10-13T20:31:32.593Z,16.05
2022-10-13T20:34:02.997Z,16.23
2022-10-13T20:36:38.335Z,14.95
2022-10-13T20:39:05.521Z,15.93
2022-10-13T20:41:36.609Z,16.02
2022-10-13T20:44:07.099Z,16.82
2022-10-13T20:46:37.425Z,16.95
2022-10-13T20:49:12.563Z,17.12
2022-10-13T20:51:41.171Z,16.70
2022-10-13T20:54:19.191Z,17.12
2022-10-13T20:56:50.196Z,17.12
2022-10-13T20:59:20.758Z,17.20
2022-10-13T21:01:51.079Z,17.95
2022-10-13T21:04:21.478Z,17.48
2022-10-13T21:06:53.421Z,18.57
2022-10-13T21:09:23.871Z,18.40
2022-10-13T21:11:54.578Z,18.42
2022-10-13T21:14:25.006Z,18.52
2022-10-13T21:16:55.423Z,17.85
2022-10-13T21:19:27.896Z,18.70
2022-10-13T21:21:58.235Z,19.35
2022-10-13T21:24:28.706Z,19.10
2022-10-13T21:26:59.062Z,18.25
2022-10-13T21:29:29.687Z,18.97
2022-10-13T21:31:59.996Z,18.95
2022-10-13T21:34:30.446Z,19.45
2022-10-13T21:37:00.785Z,19.67
2022-10-13T21:39:31.187Z,19.62
2022-10-13T21:42:01.514Z,18.98
2022-10-13T21:44:31.974Z,19.95
2022-10-13T21:47:02.353Z,19.48
2022-10-13T21:49:32.790Z,21.02
2022-10-13T21:52:03.182Z,21.25
2022-10-13T21:54:33.563Z,19.90
2022-10-13T21:57:03.971Z,19.75
2022-10-13T21:59:34.553Z,18.32
2022-10-13T22:02:05.236Z,19.75
2022-10-13T22:04:35.979Z,19.30
2022-10-13T22:07:06.671Z,19.85
2022-10-13T22:09:37.233Z,20.50
2022-10-13T22:12:09.192Z,20.15
2022-10-13T22:14:39.604Z,21.35
2022-10-13T22:17:09.914Z,20.23
2022-10-13T22:19:40.275Z,20.30
2022-10-13T22:22:10.665Z,21.20
2022-10-13T22:24:41.011Z,21.12
2022-10-13T22:27:11.327Z,20.43
2022-10-13T22:29:41.719Z,19.92
2022-10-13T22:32:12.098Z,21.77
2022-10-13T22:34:42.579Z,20.82
2022-10-13T22:37:12.942Z,20.97
2022-10-13T22:39:43.274Z,20.57
2022-10-13T22:42:13.616Z,20.95
2022-10-13T22:44:44.084Z,21.40
2022-10-13T22:47:14.550Z,19.85
2022-10-13T22:49:44.906Z,20.85
2022-10-13T22:52:15.290Z,21.27
2022-10-13T22:54:46.194Z,19.50
2022-10-13T22:57:16.567Z,20.37
2022-10-13T22:59:46.907Z,21.25
2022-10-13T23:02:17.322Z,20.90
2022-10-13T23:04:49.642Z,20.30
2022-10-13T23:07:20.327Z,22.95
2022-10-13T23:09:50.962Z,23.07
2022-10-13T23:12:21.942Z,22.07
2022-10-13T23:14:52.640Z,21.15
2022-10-13T23:17:23.198Z,22.35
2022-10-13T23:19:53.785Z,21.70
2022-10-13T23:22:24.279Z,21.93
2022-10-13T23:24:54.603Z,21.42
2022-10-13T23:27:24.911Z,21.85
2022-10-13T23:29:55.354Z,21.02
2022-10-13T23:32:25.791Z,20.68
2022-10-13T23:34:56.125Z,21.70
2022-10-13T23:37:26.817Z,22.35
2022-10-13T23:39:57.212Z,20.17
2022-10-13T23:42:27.782Z,23.60
2022-10-13T23:44:58.178Z,21.20
2022-10-13T23:47:28.573Z,21.82
2022-10-13T23:49:59.061Z,21.20
2022-10-13T23:52:29.589Z,21.33
2022-10-13T23:55:00.206Z,21.70
2022-10-13T23:57:31.360Z,20.85
